Time;durP1;ratioP1;P1;durP2;ratioP2;P2;SDS_P1;SDS_P2;PMS_P1;PMS_P2;Temp;Humidity;BMP_temperature;BMP_pressure;BME280_temperature;BME280_humidity;BME280_pressure;Samples;Min_cycle;Max_cycle;Signal;HPM_P1;HPM_P2
2023/01/30 00:01:38;;;;;;;21.20;9.43;;;;;;;11.07;47.02;101798.94;5015283;28;20398;-65
2023/01/30 00:04:04;;;;;;;29.23;10.38;;;;;;;11.04;46.78;101785.75;5015538;28;20243;-65
2023/01/30 00:06:29;;;;;;;20.63;8.57;;;;;;;11.12;47.32;101802.16;5014721;28;20416;-65
2023/01/30 00:08:54;;;;;;;23.08;9.10;;;;;;;11.11;47.46;101806.66;5014835;28;20042;-65
2023/01/30 00:11:20;;;;;;;19.80;8.40;;;;;;;11.15;47.35;101798.38;5015627;28;20085;-66
2023/01/30 00:13:47;;;;;;;17.73;8.07;;;;;;;11.15;46.66;101803.75;5015145;28;20053;-66
2023/01/30 00:16:13;;;;;;;21.73;8.63;;;;;;;11.17;46.54;101783.06;5015068;28;20117;-66
2023/01/30 00:18:39;;;;;;;21.05;9.27;;;;;;;11.17;46.74;101767.81;5014555;28;20084;-66
2023/01/30 00:21:07;;;;;;;22.85;10.25;;;;;;;11.24;47.29;101779.84;5016696;28;20042;-66
2023/01/30 00:23:33;;;;;;;20.23;9.32;;;;;;;11.28;47.24;101775.13;5001578;28;20046;-66
2023/01/30 00:25:59;;;;;;;16.52;8.48;;;;;;;11.31;47.67;101773.03;5017888;28;20030;-65
2023/01/30 00:28:24;;;;;;;20.10;9.43;;;;;;;11.29;46.63;101771.44;5002428;28;20049;-65
2023/01/30 00:30:51;;;;;;;21.75;9.25;;;;;;;11.34;47.29;101770.16;5018929;28;20101;-66
2023/01/30 00:33:18;;;;;;;18.20;9.13;;;;;;;11.34;47.41;101750.50;5020153;28;20121;-65
2023/01/30 00:35:47;;;;;;;26.75;10.07;;;;;;;11.37;47.21;101744.91;5018438;28;20037;-65
2023/01/30 00:38:13;;;;;;;19.80;8.52;;;;;;;11.35;47.21;101755.78;5020352;28;20034;-66
2023/01/30 00:40:39;;;;;;;22.55;8.15;;;;;;;11.36;47.58;101756.63;5020752;28;20053;-66
2023/01/30 00:48:33;;;;;;;16.88;8.15;;;;;;;11.43;47.31;101717.66;5018640;28;20140;-65
2023/01/30 00:50:59;;;;;;;20.98;8.40;;;;;;;11.48;47.38;101712.78;5019488;28;20553;-65
2023/01/30 00:53:24;;;;;;;21.00;8.57;;;;;;;11.51;47.34;101685.75;5019480;28;20033;-65
2023/01/30 00:55:51;;;;;;;21.08;8.90;;;;;;;11.49;47.93;101693.91;5018133;28;20065;-65
2023/01/30 00:58:16;;;;;;;23.05;8.88;;;;;;;11.55;47.55;101714.94;5002036;28;20034;-65
2023/01/30 01:00:43;;;;;;;21.98;9.38;;;;;;;11.56;48.02;101713.94;5001725;28;20045;-65
2023/01/30 01:03:09;;;;;;;22.15;7.82;;;;;;;11.59;47.24;101724.47;5018245;28;20483;-65
2023/01/30 01:05:34;;;;;;;17.25;8.50;;;;;;;11.59;47.31;101712.84;5018190;28;20091;-65
2023/01/30 01:08:00;;;;;;;21.38;7.93;;;;;;;11.64;48.25;101724.13;5019306;28;20462;-66
2023/01/30 01:10:26;;;;;;;20.73;8.15;;;;;;;11.66;47.83;101716.81;5017951;28;20577;-65
2023/01/30 01:12:51;;;;;;;17.40;8.43;;;;;;;11.70;47.62;101709.44;5019334;28;20061;-65
2023/01/30 01:15:17;;;;;;;20.45;7.03;;;;;;;11.66;47.24;101703.41;5017886;28;20108;-66
2023/01/30 01:17:42;;;;;;;20.35;8.90;;;;;;;11.72;47.49;101697.59;5000020;28;20065;-65
2023/01/30 01:20:09;;;;;;;21.13;8.45;;;;;;;11.74;48.03;101698.34;5017679;28;20046;-66
2023/01/30 01:22:34;;;;;;;18.08;8.27;;;;;;;11.70;47.44;101696.84;5018137;28;20030;-65
2023/01/30 01:25:00;;;;;;;17.13;7.57;;;;;;;11.73;47.70;101709.19;5016983;28;20498;-66
2023/01/30 01:27:25;;;;;;;20.20;8.70;;;;;;;11.75;47.82;101712.63;5016157;28;20041;-66
2023/01/30 01:29:51;;;;;;;21.05;8.82;;;;;;;11.74;47.67;101719.81;5015020;28;20056;-66
2023/01/30 01:32:16;;;;;;;18.90;8.38;;;;;;;11.74;47.70;101719.81;5016839;28;20486;-66
2023/01/30 01:34:41;;;;;;;17.65;8.30;;;;;;;11.76;47.60;101728.59;5017167;28;20324;-66
2023/01/30 01:37:07;;;;;;;21.23;9.05;;;;;;;11.72;48.25;101694.94;5018997;28;20109;-66
2023/01/30 01:42:16;;;;;;;23.25;9.38;;;;;;;11.78;48.11;101705.16;5015038;28;20045;-65
2023/01/30 01:45:10;;;;;;;16.48;8.32;;;;;;;11.81;48.18;101693.38;5019096;28;20038;-66
2023/01/30 01:47:39;;;;;;;15.68;7.13;;;;;;;11.77;48.12;101698.13;5015490;28;20522;-65
2023/01/30 01:50:05;;;;;;;22.55;9.27;;;;;;;11.79;47.83;101704.22;5016276;28;20041;-65
2023/01/30 01:52:30;;;;;;;19.95;8.40;;;;;;;11.81;48.13;101683.47;5016772;28;20045;-65
2023/01/30 01:54:59;;;;;;;20.10;8.55;;;;;;;11.80;48.45;101688.97;5015689;28;20038;-65
2023/01/30 01:57:29;;;;;;;19.25;8.52;;;;;;;11.73;47.60;101677.84;4998872;28;20120;-65
2023/01/30 02:00:06;;;;;;;23.20;7.32;;;;;;;11.82;48.15;101693.25;5017266;28;20455;-65
2023/01/30 02:02:32;;;;;;;20.48;8.77;;;;;;;11.79;48.43;101696.16;5015239;28;20498;-65
2023/01/30 02:05:02;;;;;;;18.80;8.85;;;;;;;11.81;48.86;101688.00;5014207;28;20052;-66
2023/01/30 02:07:35;;;;;;;15.63;7.55;;;;;;;11.83;47.86;101684.22;5014177;28;20022;-65
2023/01/30 02:10:01;;;;;;;20.60;8.77;;;;;;;11.85;48.37;101666.19;5015201;28;20461;-66
2023/01/30 02:12:26;;;;;;;22.80;8.93;;;;;;;11.89;48.36;101664.13;5014866;28;20038;-66
2023/01/30 02:14:53;;;;;;;20.38;8.57;;;;;;;11.89;47.82;101669.50;5014982;28;20084;-65
2023/01/30 02:17:19;;;;;;;19.63;8.57;;;;;;;11.87;48.27;101658.84;5013609;28;20096;-66
2023/01/30 02:20:41;;;;;;;20.52;8.18;;;;;;;11.82;48.75;101647.63;5014092;28;20045;-66
2023/01/30 02:23:37;;;;;;;18.50;8.32;;;;;;;11.82;48.39;101642.25;5012851;28;20048;-66
2023/01/30 02:26:24;;;;;;;20.15;7.85;;;;;;;11.85;48.11;101652.75;4998581;28;20033;-66
2023/01/30 02:29:04;;;;;;;19.63;7.30;;;;;;;11.85;48.68;101639.34;5014421;28;20107;-65
2023/01/30 02:31:35;;;;;;;17.00;6.88;;;;;;;11.86;48.68;101643.75;5015095;28;20068;-65
2023/01/30 02:34:06;;;;;;;16.80;8.52;;;;;;;11.89;48.95;101624.69;5014723;28;20414;-65
2023/01/30 02:36:47;;;;;;;13.20;6.75;;;;;;;11.89;48.83;101613.13;5013348;28;20088;-65
2023/01/30 02:39:24;;;;;;;25.55;8.45;;;;;;;11.88;48.65;101614.94;5013474;28;20418;-65
2023/01/30 02:42:02;;;;;;;17.67;8.32;;;;;;;11.82;48.48;101596.63;5013313;28;20112;-65
2023/01/30 02:45:08;;;;;;;18.20;7.15;;;;;;;11.91;48.66;101606.66;4996337;28;20121;-65
2023/01/30 02:47:48;;;;;;;20.60;8.50;;;;;;;11.90;49.29;101596.88;5006121;28;20041;-65
2023/01/30 02:50:33;;;;;;;15.98;8.07;;;;;;;11.91;48.27;101598.59;5013030;28;20491;-65
2023/01/30 02:52:59;;;;;;;18.48;7.30;;;;;;;11.95;48.93;101588.47;5014341;28;20029;-66
2023/01/30 02:55:27;;;;;;;18.13;7.28;;;;;;;11.95;48.64;101597.38;4997058;28;20504;-65
2023/01/30 02:57:52;;;;;;;21.17;8.23;;;;;;;11.98;49.31;101582.84;5013076;28;20030;-67
2023/01/30 03:00:41;;;;;;;19.20;6.82;;;;;;;12.00;49.54;101581.78;5014207;28;20571;-66
2023/01/30 03:03:10;;;;;;;16.70;7.32;;;;;;;12.02;48.56;101579.81;5013411;28;20490;-66
2023/01/30 03:05:55;;;;;;;15.07;7.82;;;;;;;12.06;48.46;101573.22;5012543;28;20037;-66
2023/01/30 03:08:54;;;;;;;15.68;7.60;;;;;;;12.07;49.19;101566.88;5014076;28;20072;-66
2023/01/30 03:11:23;;;;;;;13.90;6.57;;;;;;;12.03;48.66;101570.78;4996715;28;20386;-66
2023/01/30 03:13:51;;;;;;;19.80;8.20;;;;;;;12.10;48.55;101563.09;5012721;28;20033;-66
2023/01/30 03:16:19;;;;;;;14.88;6.85;;;;;;;12.11;49.02;101560.31;5014593;28;20038;-66
2023/01/30 03:18:46;;;;;;;20.80;8.23;;;;;;;12.13;49.40;101561.03;5013606;28;20076;-66
2023/01/30 03:21:11;;;;;;;13.32;6.72;;;;;;;12.13;49.27;101555.66;4996186;28;20029;-66
2023/01/30 03:23:37;;;;;;;14.43;7.53;;;;;;;12.14;49.62;101543.09;5012367;28;20029;-66
2023/01/30 03:26:07;;;;;;;16.25;7.28;;;;;;;12.15;49.63;101548.34;5012503;28;20395;-66
2023/01/30 03:28:33;;;;;;;19.95;7.70;;;;;;;12.10;49.03;101536.25;5014084;28;20423;-66
2023/01/30 03:30:58;;;;;;;15.25;6.75;;;;;;;12.16;49.04;101554.56;5012282;28;20077;-66
2023/01/30 03:33:24;;;;;;;15.55;6.85;;;;;;;12.16;48.81;101560.78;5013422;28;20498;-66
2023/01/30 03:35:50;;;;;;;17.30;8.27;;;;;;;12.13;49.07;101550.28;5013539;28;20025;-66
2023/01/30 03:38:17;;;;;;;21.23;9.05;;;;;;;12.18;49.92;101553.47;5013432;28;20095;-65
2023/01/30 03:40:43;;;;;;;15.45;7.47;;;;;;;12.20;49.70;101551.50;5012730;28;20180;-66
2023/01/30 03:43:09;;;;;;;19.75;7.85;;;;;;;12.23;49.27;101548.56;5012356;28;20453;-66
2023/01/30 03:45:34;;;;;;;17.88;7.55;;;;;;;12.25;49.63;101543.09;5013567;28;20046;-66
2023/01/30 03:48:00;;;;;;;15.60;7.75;;;;;;;12.25;49.34;101545.78;5011840;28;20388;-66
2023/01/30 03:50:25;;;;;;;13.30;6.85;;;;;;;12.27;49.37;101527.69;5011913;28;20038;-66
2023/01/30 03:52:50;;;;;;;17.25;7.45;;;;;;;12.26;48.80;101540.28;5012233;28;20030;-66
2023/01/30 03:55:16;;;;;;;16.08;6.93;;;;;;;12.26;49.26;101539.41;5013648;28;20054;-66
2023/01/30 03:57:41;;;;;;;14.95;6.93;;;;;;;12.31;49.05;101526.47;5013070;28;20405;-66
2023/01/30 04:00:07;;;;;;;21.45;8.20;;;;;;;12.32;48.94;101528.19;5013404;28;20096;-66
2023/01/30 04:02:33;;;;;;;17.65;7.20;;;;;;;12.35;49.73;101533.31;5012513;28;20032;-67
2023/01/30 04:04:58;;;;;;;14.45;6.10;;;;;;;12.37;49.86;101533.22;5015171;28;20030;-66
2023/01/30 04:07:23;;;;;;;18.92;7.43;;;;;;;12.37;48.99;101534.03;5014217;28;20508;-65
2023/01/30 04:09:49;;;;;;;16.45;6.78;;;;;;;12.39;49.44;101518.66;5013580;28;20041;-66
2023/01/30 04:12:15;;;;;;;13.88;6.78;;;;;;;12.41;50.00;101532.81;5013418;28;20037;-66
2023/01/30 04:14:41;;;;;;;14.43;6.43;;;;;;;12.43;49.16;101530.00;5012101;28;20026;-66
2023/01/30 04:17:06;;;;;;;16.52;6.88;;;;;;;12.42;49.39;101513.03;5012012;28;20367;-66
2023/01/30 04:19:32;;;;;;;15.25;6.75;;;;;;;12.43;49.95;101513.88;5012236;28;20120;-66
2023/01/30 04:21:57;;;;;;;13.45;6.75;;;;;;;12.44;49.10;101526.34;5011803;28;20041;-66
2023/01/30 04:24:22;;;;;;;15.68;6.60;;;;;;;12.42;49.58;101526.47;5012982;28;20034;-66
2023/01/30 04:26:48;;;;;;;15.27;6.63;;;;;;;12.41;49.26;101524.75;4995708;28;20030;-66
2023/01/30 04:29:13;;;;;;;14.55;6.72;;;;;;;12.39;49.30;101507.06;5013213;28;20044;-66
2023/01/30 04:31:38;;;;;;;18.25;7.45;;;;;;;12.37;50.16;101498.28;4995913;28;20036;-66
2023/01/30 04:34:04;;;;;;;18.02;7.53;;;;;;;12.30;50.47;101505.09;5013034;28;20037;-66
2023/01/30 04:36:29;;;;;;;13.30;6.57;;;;;;;12.31;50.07;101504.16;5012955;28;20056;-67
2023/01/30 04:38:58;;;;;;;14.05;6.63;;;;;;;12.31;49.52;101501.47;5013058;28;20046;-67
2023/01/30 04:41:23;;;;;;;13.85;6.85;;;;;;;12.30;50.63;101507.78;4996051;28;20509;-66
2023/01/30 04:43:48;;;;;;;18.02;6.55;;;;;;;12.25;50.32;101500.94;5012939;28;20034;-66
2023/01/30 04:46:14;;;;;;;15.68;6.78;;;;;;;12.28;49.87;101495.31;5013125;28;20193;-66
2023/01/30 04:48:39;;;;;;;19.73;7.05;;;;;;;12.28;50.43;101495.31;5011394;28;20038;-67
2023/01/30 04:51:05;;;;;;;16.88;6.68;;;;;;;12.30;50.09;101497.91;5013022;28;20146;-66
2023/01/30 04:53:30;;;;;;;15.73;6.90;;;;;;;12.32;50.07;101484.34;5012913;28;20038;-66
2023/01/30 04:55:55;;;;;;;18.10;6.80;;;;;;;12.34;49.75;101485.09;5012774;28;20065;-66
2023/01/30 04:58:21;;;;;;;11.88;5.47;;;;;;;12.32;50.89;101489.72;5012005;28;20026;-66
2023/01/30 05:00:47;;;;;;;14.48;5.63;;;;;;;12.33;50.13;101488.75;5012040;28;20040;-65
2023/01/30 05:03:13;;;;;;;12.60;6.35;;;;;;;12.36;50.66;101491.19;5012947;28;20048;-66
2023/01/30 05:05:38;;;;;;;9.57;5.25;;;;;;;12.39;50.55;101496.31;4995032;28;20491;-66
2023/01/30 05:08:04;;;;;;;14.45;5.40;;;;;;;12.40;50.75;101508.75;5015039;28;20034;-66
2023/01/30 05:10:29;;;;;;;9.60;4.88;;;;;;;12.43;50.93;101505.81;5015751;28;20029;-66
2023/01/30 05:12:55;;;;;;;11.32;5.03;;;;;;;12.44;49.95;101499.47;5014918;28;20045;-66
2023/01/30 05:15:20;;;;;;;9.93;5.15;;;;;;;12.45;50.62;101501.19;5014955;28;20042;-66
2023/01/30 05:17:45;;;;;;;12.65;5.53;;;;;;;12.45;50.05;101506.56;5015038;28;20113;-66
2023/01/30 05:20:12;;;;;;;11.60;5.47;;;;;;;12.46;50.29;101503.75;5016209;28;20037;-66
2023/01/30 05:22:37;;;;;;;11.35;5.45;;;;;;;12.48;50.69;101511.69;5016358;28;20025;-66
2023/01/30 05:25:03;;;;;;;10.70;5.13;;;;;;;12.50;50.32;101517.78;5015723;28;20038;-67
2023/01/30 05:27:28;;;;;;;9.70;5.03;;;;;;;12.50;50.64;101512.41;5014652;28;20045;-66
2023/01/30 05:29:54;;;;;;;10.35;5.35;;;;;;;12.51;51.40;101512.28;5014718;28;20469;-67
2023/01/30 05:32:19;;;;;;;9.57;5.03;;;;;;;12.54;50.67;101512.03;5015792;28;20529;-66
2023/01/30 05:34:45;;;;;;;11.20;5.15;;;;;;;12.57;50.88;101510.91;5015300;28;20041;-66
2023/01/30 05:37:12;;;;;;;12.23;5.07;;;;;;;12.60;50.31;101508.84;5015866;28;20038;-66
2023/01/30 05:39:37;;;;;;;11.32;5.43;;;;;;;12.63;51.15;101499.69;5015728;28;20038;-66
2023/01/30 05:42:03;;;;;;;8.18;4.75;;;;;;;12.65;51.03;101519.22;4998036;28;20388;-67
2023/01/30 05:44:29;;;;;;;10.10;4.97;;;;;;;12.67;51.25;101522.66;5014414;28;20037;-66
2023/01/30 05:46:54;;;;;;;8.15;4.40;;;;;;;12.72;49.97;101509.69;5015549;28;20103;-66
2023/01/30 05:49:20;;;;;;;9.00;5.28;;;;;;;12.75;50.87;101504.91;5014625;28;20133;-66
2023/01/30 05:51:45;;;;;;;11.00;4.93;;;;;;;12.77;50.22;101507.47;5014506;28;20036;-66
2023/01/30 05:54:10;;;;;;;9.85;4.78;;;;;;;12.78;50.40;101493.03;5015969;28;20034;-66
2023/01/30 05:56:36;;;;;;;11.18;5.43;;;;;;;12.79;50.76;101505.50;5015474;28;20026;-66
2023/01/30 05:59:02;;;;;;;7.68;5.32;;;;;;;12.81;50.48;101504.38;5015468;28;20069;-66
2023/01/30 06:01:28;;;;;;;9.50;5.85;;;;;;;12.85;51.01;101504.97;5015601;28;20055;-67
2023/01/30 06:03:54;;;;;;;11.70;6.38;;;;;;;12.85;51.20;101505.84;5014188;28;20034;-66
2023/01/30 06:06:20;;;;;;;13.05;5.60;;;;;;;12.85;50.15;101502.31;5015567;28;20048;-67
2023/01/30 06:08:45;;;;;;;11.60;5.38;;;;;;;12.86;50.36;101490.56;5015219;28;20121;-67
2023/01/30 06:11:13;;;;;;;15.88;6.55;;;;;;;12.85;50.09;101488.84;5016124;28;20034;-67
2023/01/30 06:13:38;;;;;;;16.77;5.53;;;;;;;12.84;51.11;101481.78;5014142;28;20026;-66
2023/01/30 06:16:05;;;;;;;10.23;5.65;;;;;;;12.86;50.99;101490.56;5015288;28;20393;-66
2023/01/30 06:18:31;;;;;;;11.75;5.45;;;;;;;12.84;50.53;101488.00;5013000;28;20045;-66
2023/01/30 06:20:56;;;;;;;13.05;7.05;;;;;;;12.84;51.43;101497.91;4997444;28;20038;-67
2023/01/30 06:23:22;;;;;;;11.75;5.13;;;;;;;12.83;51.64;101512.34;5014787;28;20509;-66
2023/01/30 06:25:49;;;;;;;12.93;6.07;;;;;;;12.82;51.25;101524.06;5013915;28;20105;-66
2023/01/30 06:28:15;;;;;;;9.25;5.07;;;;;;;12.81;51.16;101512.44;5014031;28;20405;-66
2023/01/30 06:30:40;;;;;;;14.27;5.55;;;;;;;12.84;51.01;101519.44;5013563;28;20113;-66
2023/01/30 06:33:06;;;;;;;12.82;5.07;;;;;;;12.85;50.71;101516.59;5014871;28;20125;-67
2023/01/30 06:35:32;;;;;;;10.68;5.18;;;;;;;12.86;51.44;101517.47;4997035;28;20030;-66
2023/01/30 06:37:57;;;;;;;8.25;4.35;;;;;;;12.88;51.00;101520.88;5013289;28;20113;-66
2023/01/30 06:40:23;;;;;;;8.00;3.88;;;;;;;12.90;50.80;101515.38;5015050;28;20450;-66
2023/01/30 06:42:48;;;;;;;7.45;4.53;;;;;;;12.91;51.65;101512.53;5014559;28;20033;-66
2023/01/30 06:45:16;;;;;;;9.48;5.20;;;;;;;12.93;51.95;101513.25;5013083;28;20038;-67
2023/01/30 06:47:49;;;;;;;11.70;5.65;;;;;;;12.96;51.77;101518.41;5013115;28;20070;-66
2023/01/30 06:50:16;;;;;;;8.68;4.15;;;;;;;12.96;50.92;101529.16;5014423;28;20066;-66
2023/01/30 06:52:43;;;;;;;8.98;4.00;;;;;;;12.98;51.09;101534.41;5014555;28;20090;-66
2023/01/30 06:55:10;;;;;;;10.27;4.32;;;;;;;12.99;51.52;101536.97;5012383;28;20119;-66
2023/01/30 06:57:36;;;;;;;7.13;4.25;;;;;;;12.98;51.65;101532.56;5013243;28;20038;-67
2023/01/30 07:00:03;;;;;;;8.10;4.15;;;;;;;13.03;50.79;101529.50;5013014;28;20411;-67
2023/01/30 07:02:31;;;;;;;7.53;4.22;;;;;;;13.05;51.59;101527.53;5013004;28;20057;-68
2023/01/30 07:04:56;;;;;;;8.55;4.35;;;;;;;13.00;51.90;101525.25;5012762;28;20036;-67
2023/01/30 07:07:21;;;;;;;6.90;4.35;;;;;;;13.09;51.43;101523.66;5012957;28;20026;-67
2023/01/30 07:09:47;;;;;;;7.88;4.25;;;;;;;13.10;52.13;101526.19;5014040;28;20065;-67
2023/01/30 07:12:12;;;;;;;7.40;3.70;;;;;;;13.15;51.00;101540.13;5012817;28;20453;-70
2023/01/30 07:14:38;;;;;;;8.30;3.90;;;;;;;13.15;51.03;101534.72;5012758;28;20037;-68
2023/01/30 07:17:03;;;;;;;4.93;3.38;;;;;;;13.21;51.55;101531.53;4996416;28;20109;-66
2023/01/30 07:19:28;;;;;;;5.75;3.38;;;;;;;13.25;51.51;101532.13;5014314;28;20422;-66
2023/01/30 07:21:54;;;;;;;6.18;3.90;;;;;;;13.28;51.91;101535.44;5012564;28;20113;-67
2023/01/30 07:24:19;;;;;;;10.65;4.57;;;;;;;13.32;50.88;101541.38;5013538;28;20521;-67
2023/01/30 07:26:47;;;;;;;6.50;4.22;;;;;;;13.36;51.96;101535.63;5013820;28;20041;-67
2023/01/30 07:29:12;;;;;;;6.38;3.47;;;;;;;13.34;51.36;101520.59;5012670;28;20041;-67
2023/01/30 07:31:37;;;;;;;8.02;3.75;;;;;;;13.42;52.04;101526.19;5013447;28;20445;-67
2023/01/30 07:34:03;;;;;;;8.70;3.83;;;;;;;13.43;50.73;101528.72;5013608;28;20070;-67
2023/01/30 07:36:28;;;;;;;6.68;3.63;;;;;;;13.45;51.79;101546.59;5012245;28;20564;-67
2023/01/30 07:38:53;;;;;;;10.10;3.47;;;;;;;13.48;51.88;101552.59;5013855;28;20057;-67
2023/01/30 07:41:19;;;;;;;8.85;4.45;;;;;;;13.49;51.94;101566.88;5013835;28;20037;-67
2023/01/30 07:43:44;;;;;;;8.18;3.78;;;;;;;13.49;52.20;101574.94;5013689;28;20109;-67
2023/01/30 07:46:10;;;;;;;9.48;5.28;;;;;;;13.52;52.03;101580.06;5013172;28;20034;-67
2023/01/30 07:48:35;;;;;;;11.15;4.00;;;;;;;13.53;51.81;101576.41;5013280;28;20034;-66
2023/01/30 07:51:00;;;;;;;10.10;2.95;;;;;;;13.55;50.85;101574.44;5012238;28;20076;-67
2023/01/30 07:53:26;;;;;;;5.45;3.30;;;;;;;13.58;51.19;101575.03;5012205;28;20026;-67
2023/01/30 07:55:51;;;;;;;13.18;3.75;;;;;;;13.61;51.68;101573.91;5013236;28;20490;-67
2023/01/30 07:58:16;;;;;;;8.48;2.85;;;;;;;13.69;51.45;101576.81;5012805;28;20561;-67
2023/01/30 08:00:42;;;;;;;12.13;3.30;;;;;;;13.73;50.36;101573.75;5013534;28;20042;-67
2023/01/30 08:03:12;;;;;;;5.03;3.00;;;;;;;13.79;50.90;101572.34;5013543;28;20026;-67
2023/01/30 08:05:38;;;;;;;10.48;3.03;;;;;;;13.87;50.90;101583.31;5012042;28;20457;-67
2023/01/30 08:08:03;;;;;;;7.78;3.15;;;;;;;13.94;49.86;101590.72;5011785;28;20030;-67
2023/01/30 08:10:29;;;;;;;8.07;2.80;;;;;;;14.00;49.69;101592.91;5013646;28;20038;-67
2023/01/30 08:12:54;;;;;;;3.53;2.83;;;;;;;14.04;49.68;101584.56;5013719;28;20042;-67
2023/01/30 08:15:19;;;;;;;6.63;2.85;;;;;;;14.09;51.08;101585.00;5017355;28;20041;-67
2023/01/30 08:17:52;;;;;;;6.15;2.88;;;;;;;14.14;50.31;101580.06;5013774;28;20084;-67
2023/01/30 08:20:18;;;;;;;4.70;2.53;;;;;;;14.20;50.21;101582.22;4995862;28;20033;-67
2023/01/30 08:22:43;;;;;;;11.68;3.30;;;;;;;14.26;50.19;101587.94;5013382;28;20041;-64
2023/01/30 08:25:09;;;;;;;8.70;2.67;;;;;;;14.33;50.72;101581.06;5012934;28;20038;-65
2023/01/30 08:27:34;;;;;;;9.10;2.80;;;;;;;14.37;49.25;101582.50;5013024;28;20229;-64
2023/01/30 08:29:59;;;;;;;7.68;3.50;;;;;;;14.40;50.72;101584.06;5012813;28;20506;-63
2023/01/30 08:32:25;;;;;;;9.48;2.80;;;;;;;14.41;49.62;101581.22;5012916;28;20044;-64
2023/01/30 08:34:50;;;;;;;9.73;3.38;;;;;;;14.44;49.70;101586.34;5013135;28;20102;-64
2023/01/30 08:37:15;;;;;;;5.97;2.63;;;;;;;14.48;50.96;101589.63;5013143;28;20521;-64
2023/01/30 08:39:41;;;;;;;5.15;2.35;;;;;;;14.52;49.35;101594.59;5012872;28;20033;-64
2023/01/30 08:42:06;;;;;;;4.20;2.63;;;;;;;14.55;49.30;101594.34;5012541;28;20049;-65
2023/01/30 08:44:31;;;;;;;7.80;3.15;;;;;;;14.60;50.19;101609.28;5016508;28;20112;-64
2023/01/30 08:46:57;;;;;;;6.78;2.10;;;;;;;14.66;49.51;101604.16;5015333;28;20108;-64
2023/01/30 08:49:22;;;;;;;5.57;2.40;;;;;;;14.71;49.43;101610.03;5017218;28;20097;-64
2023/01/30 08:51:48;;;;;;;9.43;3.15;;;;;;;14.83;49.71;101608.06;5016780;28;20108;-64
2023/01/30 08:54:13;;;;;;;5.85;2.50;;;;;;;14.95;49.82;101590.78;5016487;28;20041;-64
2023/01/30 08:56:38;;;;;;;7.38;3.13;;;;;;;15.10;49.83;101605.59;5015398;28;20621;-64
2023/01/30 08:59:04;;;;;;;6.70;2.80;;;;;;;15.24;48.38;101602.50;5016537;28;20029;-65
2023/01/30 09:01:30;;;;;;;8.60;2.90;;;;;;;15.42;49.52;101616.97;5016719;28;20037;-65
2023/01/30 09:03:55;;;;;;;7.40;2.90;;;;;;;15.54;49.27;101613.19;5016214;28;20041;-64
2023/01/30 09:06:21;;;;;;;8.35;3.38;;;;;;;15.64;47.96;101616.72;5016436;28;20125;-64
2023/01/30 09:08:46;;;;;;;7.90;2.75;;;;;;;15.80;49.10;101608.03;5016156;28;20049;-65
2023/01/30 09:11:12;;;;;;;9.90;3.42;;;;;;;15.95;49.04;101608.44;5016211;28;20483;-65
2023/01/30 09:13:42;;;;;;;7.15;2.72;;;;;;;16.11;48.00;101619.50;4998888;28;20033;-65
2023/01/30 09:16:08;;;;;;;6.80;1.95;;;;;;;16.26;47.68;101618.91;4999093;28;20525;-65
2023/01/30 09:18:33;;;;;;;12.32;2.38;;;;;;;16.43;48.50;101622.72;4998148;28;20058;-65
2023/01/30 09:21:03;;;;;;;11.63;2.90;;;;;;;16.57;47.69;101624.97;4998257;28;20561;-65
2023/01/30 09:23:28;;;;;;;5.82;2.33;;;;;;;16.74;47.79;101628.75;5016070;28;20034;-65
2023/01/30 09:25:54;;;;;;;13.70;2.25;;;;;;;16.91;47.00;101624.38;5015770;28;20112;-64
2023/01/30 09:28:19;;;;;;;4.82;1.65;;;;;;;16.99;47.08;101635.31;5016148;28;20068;-65
2023/01/30 09:30:44;;;;;;;10.50;2.33;;;;;;;17.08;47.23;101637.97;5015712;28;20045;-65
2023/01/30 09:33:10;;;;;;;13.48;2.15;;;;;;;17.19;46.88;101628.78;5015884;28;20034;-65
2023/01/30 09:35:35;;;;;;;9.80;1.70;;;;;;;17.19;47.21;101635.06;5014494;28;20061;-65
2023/01/30 09:38:01;;;;;;;7.80;2.20;;;;;;;17.16;46.90;101648.03;5015676;28;20095;-65
2023/01/30 09:40:28;;;;;;;5.82;1.25;;;;;;;17.32;45.97;101650.91;5015964;28;20026;-65
2023/01/30 09:43:18;;;;;;;11.48;2.42;;;;;;;17.25;46.47;101647.13;5014696;28;20563;-65
2023/01/30 09:46:31;;;;;;;8.90;1.17;;;;;;;17.00;47.03;101655.97;5015393;28;20125;-65
2023/01/30 09:49:07;;;;;;;8.23;2.87;;;;;;;16.86;46.24;101665.44;5014743;28;20149;-65
2023/01/30 09:51:51;;;;;;;13.02;2.15;;;;;;;16.68;47.40;101664.50;5014140;28;20270;-66
2023/01/30 09:54:23;;;;;;;12.40;2.53;;;;;;;16.63;47.63;101667.66;5012903;28;20030;-65
2023/01/30 09:57:06;;;;;;;10.40;2.22;;;;;;;17.14;46.90;101669.00;5015393;28;20034;-65
2023/01/30 09:59:58;;;;;;;13.88;2.67;;;;;;;17.83;44.56;101664.69;5015411;28;20026;-65
2023/01/30 10:02:34;;;;;;;8.52;2.30;;;;;;;17.64;45.45;101654.03;5015001;28;20052;-65
2023/01/30 10:05:02;;;;;;;19.73;3.20;;;;;;;17.42;46.19;101646.28;5013885;28;20030;-65
2023/01/30 10:07:34;;;;;;;13.60;2.65;;;;;;;18.35;44.06;101645.75;5014529;28;20038;-65
2023/01/30 10:10:23;;;;;;;12.20;2.60;;;;;;;18.63;43.75;101654.63;5015341;28;20034;-65
2023/01/30 10:12:52;;;;;;;7.65;2.55;;;;;;;19.25;43.18;101656.09;4987800;28;20109;-65
2023/01/30 10:15:19;;;;;;;13.05;2.78;;;;;;;19.81;42.85;101648.06;5015314;28;20048;-67
2023/01/30 10:17:50;;;;;;;11.88;2.35;;;;;;;19.28;43.63;101658.47;5015564;28;20038;-65
2023/01/30 10:20:30;;;;;;;5.93;2.08;;;;;;;19.45;43.55;101658.38;5017803;28;20367;-65
2023/01/30 10:23:23;;;;;;;13.95;2.90;;;;;;;19.99;42.68;101656.91;5013522;28;20021;-65
2023/01/30 10:25:54;;;;;;;11.95;2.00;;;;;;;20.19;42.86;101657.41;5014713;28;20030;-66
2023/01/30 10:28:38;;;;;;;12.88;2.95;;;;;;;20.10;42.29;101667.44;5013945;28;20479;-66
2023/01/30 10:31:08;;;;;;;7.15;1.65;;;;;;;19.65;43.14;101659.75;5013549;28;20410;-65
2023/01/30 10:33:38;;;;;;;9.35;2.25;;;;;;;19.42;43.51;101679.59;5014537;28;20033;-66
2023/01/30 10:36:08;;;;;;;10.05;2.42;;;;;;;18.95;44.12;101676.53;5014716;28;20502;-66
2023/01/30 10:38:46;;;;;;;7.45;2.05;;;;;;;18.56;44.43;101676.13;5013557;28;20120;-65
2023/01/30 10:41:36;;;;;;;6.47;2.65;;;;;;;18.24;44.45;101675.84;5013460;28;20030;-65
2023/01/30 10:44:10;;;;;;;13.50;2.33;;;;;;;17.94;44.20;101675.31;5014512;28;20034;-65
2023/01/30 10:46:41;;;;;;;8.35;1.35;;;;;;;17.68;43.79;101674.38;5013473;28;20033;-65
2023/01/30 10:49:23;;;;;;;10.50;1.83;;;;;;;17.52;43.83;101668.75;5014399;28;20168;-65
2023/01/30 10:52:27;;;;;;;7.53;1.83;;;;;;;17.62;44.31;101664.13;5013135;28;20406;-65
2023/01/30 10:55:26;;;;;;;9.93;1.50;;;;;;;17.49;44.45;101674.47;5014106;28;20033;-65
2023/01/30 10:57:54;;;;;;;3.17;1.48;;;;;;;17.37;44.21;101676.53;5011363;28;20064;-65
2023/01/30 11:00:25;;;;;;;9.77;1.52;;;;;;;17.22;44.09;101688.06;5014198;28;20037;-65
2023/01/30 11:03:12;;;;;;;8.70;2.03;;;;;;;17.03;44.04;101688.16;5014052;28;20044;-66
2023/01/30 11:05:51;;;;;;;4.55;1.50;;;;;;;16.88;45.33;101699.47;5013688;28;20030;-65
2023/01/30 11:08:22;;;;;;;8.70;1.65;;;;;;;16.69;45.08;101680.59;5012822;28;20034;-65
2023/01/30 11:10:48;;;;;;;8.40;1.60;;;;;;;16.53;44.62;101688.47;5014730;28;20053;-65
2023/01/30 11:13:29;;;;;;;5.22;1.02;;;;;;;16.41;44.51;101697.72;5014227;28;20038;-65
2023/01/30 11:15:56;;;;;;;5.15;1.13;;;;;;;16.32;45.11;101695.91;5014044;28;20037;-65
2023/01/30 11:18:22;;;;;;;6.20;1.15;;;;;;;16.24;45.08;101684.97;5012581;28;20049;-66
2023/01/30 11:21:05;;;;;;;11.30;1.60;;;;;;;16.11;44.44;101684.38;5013700;28;20390;-65
2023/01/30 11:23:39;;;;;;;10.73;1.27;;;;;;;16.02;44.15;101682.56;5012589;28;20032;-65
2023/01/30 11:26:04;;;;;;;7.95;1.77;;;;;;;15.96;44.02;101680.44;5012355;28;20018;-65
2023/01/30 11:28:41;;;;;;;11.77;1.40;;;;;;;15.95;44.82;101694.94;5012908;28;20068;-65
2023/01/30 11:31:20;;;;;;;4.10;1.48;;;;;;;15.92;44.92;101695.22;5013595;28;20441;-65
2023/01/30 11:33:58;;;;;;;7.82;1.15;;;;;;;15.87;45.10;101692.09;5013979;28;20029;-65
2023/01/30 11:36:30;;;;;;;5.10;1.42;;;;;;;15.84;44.92;101690.53;4996074;28;20097;-64